sensor_id;sensor_type;location;lat;lon;timestamp;temperature;humidity
14517;DHT22;7344;50.864;4.362;2022-09-09T00:01:31;15.90;99.90
14517;DHT22;7344;50.864;4.362;2022-09-09T00:03:47;15.90;99.90
14517;DHT22;7344;50.864;4.362;2022-09-09T00:06:31;16.00;99.90
14517;DHT22;7344;50.864;4.362;2022-09-09T00:09:04;16.00;99.90
14517;DHT22;7344;50.864;4.362;2022-09-09T00:11:43;16.00;99.90
14517;DHT22;7344;50.864;4.362;2022-09-09T00:14:16;16.00;99.90
14517;DHT22;7344;50.864;4.362;2022-09-09T00:16:47;15.90;99.90
14517;DHT22;7344;50.864;4.362;2022-09-09T00:19:32;15.90;99.90
14517;DHT22;7344;50.864;4.362;2022-09-09T00:22:20;15.80;99.90
14517;DHT22;7344;50.864;4.362;2022-09-09T00:24:52;15.80;99.90
14517;DHT22;7344;50.864;4.362;2022-09-09T00:27:41;15.80;99.90
14517;DHT22;7344;50.864;4.362;2022-09-09T00:30:20;15.80;99.90
14517;DHT22;7344;50.864;4.362;2022-09-09T00:32:49;15.80;99.90
14517;DHT22;7344;50.864;4.362;2022-09-09T00:35:25;15.80;99.90
14517;DHT22;7344;50.864;4.362;2022-09-09T00:37:54;15.80;99.90
14517;DHT22;7344;50.864;4.362;2022-09-09T00:40:32;15.90;99.90
14517;DHT22;7344;50.864;4.362;2022-09-09T00:43:36;15.90;99.90
14517;DHT22;7344;50.864;4.362;2022-09-09T00:46:21;15.90;99.90
14517;DHT22;7344;50.864;4.362;2022-09-09T00:52:03;15.90;99.90
14517;DHT22;7344;50.864;4.362;2022-09-09T01:05:58;16.00;99.90
14517;DHT22;7344;50.864;4.362;2022-09-09T01:16:54;16.00;99.90
14517;DHT22;7344;50.864;4.362;2022-09-09T01:19:51;16.10;99.90
14517;DHT22;7344;50.864;4.362;2022-09-09T01:27:35;16.10;99.90
14517;DHT22;7344;50.864;4.362;2022-09-09T01:30:01;16.10;99.90
14517;DHT22;7344;50.864;4.362;2022-09-09T01:32:56;16.10;99.90
14517;DHT22;7344;50.864;4.362;2022-09-09T01:35:37;16.10;99.90
14517;DHT22;7344;50.864;4.362;2022-09-09T01:38:03;16.10;99.90
14517;DHT22;7344;50.864;4.362;2022-09-09T01:40:29;16.10;99.90
14517;DHT22;7344;50.864;4.362;2022-09-09T01:42:55;16.10;99.90
14517;DHT22;7344;50.864;4.362;2022-09-09T01:45:22;16.10;99.90
14517;DHT22;7344;50.864;4.362;2022-09-09T01:47:48;16.10;99.90
14517;DHT22;7344;50.864;4.362;2022-09-09T01:50:16;16.00;99.90
14517;DHT22;7344;50.864;4.362;2022-09-09T01:52:43;16.00;99.90
14517;DHT22;7344;50.864;4.362;2022-09-09T01:55:09;16.00;99.90
14517;DHT22;7344;50.864;4.362;2022-09-09T02:00:11;16.00;99.90
14517;DHT22;7344;50.864;4.362;2022-09-09T02:05:38;16.00;99.90
14517;DHT22;7344;50.864;4.362;2022-09-09T02:08:08;16.00;99.90
14517;DHT22;7344;50.864;4.362;2022-09-09T02:13:13;15.90;99.90
14517;DHT22;7344;50.864;4.362;2022-09-09T02:19:23;15.90;99.90
14517;DHT22;7344;50.864;4.362;2022-09-09T02:21:25;15.90;99.90
14517;DHT22;7344;50.864;4.362;2022-09-09T02:23:55;16.00;99.90
14517;DHT22;7344;50.864;4.362;2022-09-09T02:26:23;16.00;99.90
14517;DHT22;7344;50.864;4.362;2022-09-09T02:28:51;15.90;99.90
14517;DHT22;7344;50.864;4.362;2022-09-09T02:31:20;16.00;99.90
14517;DHT22;7344;50.864;4.362;2022-09-09T02:33:52;16.00;99.90
14517;DHT22;7344;50.864;4.362;2022-09-09T02:36:22;15.90;99.90
14517;DHT22;7344;50.864;4.362;2022-09-09T02:38:48;16.00;99.90
14517;DHT22;7344;50.864;4.362;2022-09-09T02:41:20;15.90;99.90
14517;DHT22;7344;50.864;4.362;2022-09-09T02:43:48;15.90;99.90
14517;DHT22;7344;50.864;4.362;2022-09-09T02:49:30;15.90;99.90
14517;DHT22;7344;50.864;4.362;2022-09-09T02:52:05;15.90;99.90
14517;DHT22;7344;50.864;4.362;2022-09-09T02:54:33;15.90;99.90
14517;DHT22;7344;50.864;4.362;2022-09-09T02:57:19;15.80;99.90
14517;DHT22;7344;50.864;4.362;2022-09-09T02:59:46;15.90;99.90
14517;DHT22;7344;50.864;4.362;2022-09-09T03:02:12;15.90;99.90
14517;DHT22;7344;50.864;4.362;2022-09-09T03:04:39;15.80;99.90
14517;DHT22;7344;50.864;4.362;2022-09-09T03:07:06;15.90;99.90
14517;DHT22;7344;50.864;4.362;2022-09-09T03:09:32;15.90;99.90
14517;DHT22;7344;50.864;4.362;2022-09-09T03:11:58;15.90;99.90
14517;DHT22;7344;50.864;4.362;2022-09-09T03:14:24;15.90;99.90
14517;DHT22;7344;50.864;4.362;2022-09-09T03:16:53;15.90;99.90
14517;DHT22;7344;50.864;4.362;2022-09-09T03:19:20;15.90;99.90
14517;DHT22;7344;50.864;4.362;2022-09-09T03:21:46;15.90;99.90
14517;DHT22;7344;50.864;4.362;2022-09-09T03:24:13;15.90;99.90
14517;DHT22;7344;50.864;4.362;2022-09-09T03:26:40;15.80;99.90
14517;DHT22;7344;50.864;4.362;2022-09-09T03:29:06;15.90;99.90
14517;DHT22;7344;50.864;4.362;2022-09-09T03:31:33;15.90;99.90
14517;DHT22;7344;50.864;4.362;2022-09-09T03:33:59;15.80;99.90
14517;DHT22;7344;50.864;4.362;2022-09-09T03:36:26;15.80;99.90
14517;DHT22;7344;50.864;4.362;2022-09-09T03:38:52;15.80;99.90
14517;DHT22;7344;50.864;4.362;2022-09-09T03:41:19;15.80;99.90
14517;DHT22;7344;50.864;4.362;2022-09-09T03:43:52;15.80;99.90
14517;DHT22;7344;50.864;4.362;2022-09-09T03:46:19;15.80;99.90
14517;DHT22;7344;50.864;4.362;2022-09-09T03:48:45;15.80;99.90
14517;DHT22;7344;50.864;4.362;2022-09-09T03:51:11;15.80;99.90
14517;DHT22;7344;50.864;4.362;2022-09-09T03:53:36;15.80;99.90
14517;DHT22;7344;50.864;4.362;2022-09-09T03:56:04;15.80;99.90
14517;DHT22;7344;50.864;4.362;2022-09-09T03:58:33;15.80;99.90
14517;DHT22;7344;50.864;4.362;2022-09-09T04:01:01;15.70;99.90
14517;DHT22;7344;50.864;4.362;2022-09-09T04:03:27;15.70;99.90
14517;DHT22;7344;50.864;4.362;2022-09-09T04:05:54;15.70;99.90
14517;DHT22;7344;50.864;4.362;2022-09-09T04:08:21;15.70;99.90
14517;DHT22;7344;50.864;4.362;2022-09-09T04:10:48;15.70;99.90
14517;DHT22;7344;50.864;4.362;2022-09-09T04:13:15;15.80;99.90
14517;DHT22;7344;50.864;4.362;2022-09-09T04:15:43;15.80;99.90
14517;DHT22;7344;50.864;4.362;2022-09-09T04:18:09;15.80;99.90
14517;DHT22;7344;50.864;4.362;2022-09-09T04:20:35;16.00;99.90
14517;DHT22;7344;50.864;4.362;2022-09-09T04:23:01;16.00;99.90
14517;DHT22;7344;50.864;4.362;2022-09-09T04:25:26;15.90;99.90
14517;DHT22;7344;50.864;4.362;2022-09-09T04:27:56;16.00;99.90
14517;DHT22;7344;50.864;4.362;2022-09-09T04:30:22;15.90;99.90
14517;DHT22;7344;50.864;4.362;2022-09-09T04:32:47;15.90;99.90
14517;DHT22;7344;50.864;4.362;2022-09-09T04:35:13;15.90;99.90
14517;DHT22;7344;50.864;4.362;2022-09-09T04:37:39;15.80;99.90
14517;DHT22;7344;50.864;4.362;2022-09-09T04:40:05;15.80;99.90
14517;DHT22;7344;50.864;4.362;2022-09-09T04:42:35;15.80;99.90
14517;DHT22;7344;50.864;4.362;2022-09-09T04:45:01;15.80;99.90
14517;DHT22;7344;50.864;4.362;2022-09-09T04:47:27;15.70;99.90
14517;DHT22;7344;50.864;4.362;2022-09-09T04:49:52;15.80;99.90
14517;DHT22;7344;50.864;4.362;2022-09-09T04:52:20;15.80;99.90
14517;DHT22;7344;50.864;4.362;2022-09-09T04:54:45;15.80;99.90
14517;DHT22;7344;50.864;4.362;2022-09-09T04:57:11;15.80;99.90
14517;DHT22;7344;50.864;4.362;2022-09-09T04:59:37;15.70;99.90
14517;DHT22;7344;50.864;4.362;2022-09-09T05:02:03;15.70;99.90
14517;DHT22;7344;50.864;4.362;2022-09-09T05:04:29;15.70;99.90
14517;DHT22;7344;50.864;4.362;2022-09-09T05:06:55;15.70;99.90
14517;DHT22;7344;50.864;4.362;2022-09-09T05:09:21;15.80;99.90
14517;DHT22;7344;50.864;4.362;2022-09-09T05:11:47;15.70;99.90
14517;DHT22;7344;50.864;4.362;2022-09-09T05:14:12;15.70;99.90
14517;DHT22;7344;50.864;4.362;2022-09-09T05:16:38;15.80;99.90
14517;DHT22;7344;50.864;4.362;2022-09-09T05:19:03;15.80;99.90
14517;DHT22;7344;50.864;4.362;2022-09-09T05:21:29;15.90;99.90
14517;DHT22;7344;50.864;4.362;2022-09-09T05:23:56;15.90;99.90
14517;DHT22;7344;50.864;4.362;2022-09-09T05:26:22;16.00;99.90
14517;DHT22;7344;50.864;4.362;2022-09-09T05:28:48;16.10;99.90
14517;DHT22;7344;50.864;4.362;2022-09-09T05:31:16;16.10;99.90
14517;DHT22;7344;50.864;4.362;2022-09-09T05:33:43;16.10;99.90
14517;DHT22;7344;50.864;4.362;2022-09-09T05:36:16;16.30;99.90
14517;DHT22;7344;50.864;4.362;2022-09-09T05:38:42;16.40;99.90
14517;DHT22;7344;50.864;4.362;2022-09-09T05:41:09;16.50;99.90
14517;DHT22;7344;50.864;4.362;2022-09-09T05:43:36;16.60;99.90
14517;DHT22;7344;50.864;4.362;2022-09-09T05:46:03;16.60;99.90
14517;DHT22;7344;50.864;4.362;2022-09-09T05:48:34;16.60;99.90
14517;DHT22;7344;50.864;4.362;2022-09-09T05:51:00;16.70;99.90
14517;DHT22;7344;50.864;4.362;2022-09-09T05:53:27;16.90;99.90
14517;DHT22;7344;50.864;4.362;2022-09-09T05:56:03;16.90;99.90
14517;DHT22;7344;50.864;4.362;2022-09-09T05:58:33;16.90;99.90
14517;DHT22;7344;50.864;4.362;2022-09-09T06:01:11;17.00;99.90
14517;DHT22;7344;50.864;4.362;2022-09-09T06:03:38;17.10;99.90
14517;DHT22;7344;50.864;4.362;2022-09-09T06:06:07;17.10;99.90
14517;DHT22;7344;50.864;4.362;2022-09-09T06:08:34;17.20;99.90
14517;DHT22;7344;50.864;4.362;2022-09-09T06:11:22;17.20;93.90
14517;DHT22;7344;50.864;4.362;2022-09-09T06:13:49;17.40;95.30
14517;DHT22;7344;50.864;4.362;2022-09-09T06:16:20;17.60;79.10
14517;DHT22;7344;50.864;4.362;2022-09-09T06:18:45;18.00;70.60
14517;DHT22;7344;50.864;4.362;2022-09-09T06:21:17;18.70;34.10
14517;DHT22;7344;50.864;4.362;2022-09-09T06:23:43;19.40;4.90
14517;DHT22;7344;50.864;4.362;2022-09-09T06:26:24;19.50;1.00
14517;DHT22;7344;50.864;4.362;2022-09-09T06:28:52;19.10;4.00
14517;DHT22;7344;50.864;4.362;2022-09-09T06:31:20;18.80;14.00
14517;DHT22;7344;50.864;4.362;2022-09-09T06:33:47;18.60;28.90
14517;DHT22;7344;50.864;4.362;2022-09-09T06:36:19;18.80;19.40
14517;DHT22;7344;50.864;4.362;2022-09-09T06:38:46;18.50;18.50
14517;DHT22;7344;50.864;4.362;2022-09-09T06:41:14;18.30;29.60
14517;DHT22;7344;50.864;4.362;2022-09-09T06:43:40;18.00;44.20
14517;DHT22;7344;50.864;4.362;2022-09-09T06:46:11;17.80;49.30
14517;DHT22;7344;50.864;4.362;2022-09-09T06:48:39;17.60;54.80
14517;DHT22;7344;50.864;4.362;2022-09-09T06:51:17;17.40;71.40
14517;DHT22;7344;50.864;4.362;2022-09-09T06:53:44;17.20;78.40
14517;DHT22;7344;50.864;4.362;2022-09-09T06:58:40;17.20;85.40
14517;DHT22;7344;50.864;4.362;2022-09-09T07:01:11;17.40;80.30
14517;DHT22;7344;50.864;4.362;2022-09-09T07:03:38;17.60;68.60
14517;DHT22;7344;50.864;4.362;2022-09-09T07:06:05;17.50;69.70
14517;DHT22;7344;50.864;4.362;2022-09-09T07:08:31;17.40;72.60
14517;DHT22;7344;50.864;4.362;2022-09-09T07:11:07;17.40;82.20
14517;DHT22;7344;50.864;4.362;2022-09-09T07:13:34;17.40;75.00
14517;DHT22;7344;50.864;4.362;2022-09-09T07:16:15;17.50;77.70
14517;DHT22;7344;50.864;4.362;2022-09-09T07:18:41;17.60;74.20
14517;DHT22;7344;50.864;4.362;2022-09-09T07:21:08;17.60;63.30
14517;DHT22;7344;50.864;4.362;2022-09-09T07:23:34;17.60;61.20
14517;DHT22;7344;50.864;4.362;2022-09-09T07:26:02;17.70;60.90
14517;DHT22;7344;50.864;4.362;2022-09-09T07:28:27;17.70;57.50
14517;DHT22;7344;50.864;4.362;2022-09-09T07:31:00;17.60;61.60
14517;DHT22;7344;50.864;4.362;2022-09-09T07:33:28;17.50;63.40
14517;DHT22;7344;50.864;4.362;2022-09-09T07:36:06;17.60;63.10
14517;DHT22;7344;50.864;4.362;2022-09-09T07:38:38;17.40;65.10
14517;DHT22;7344;50.864;4.362;2022-09-09T07:41:08;17.40;71.60
14517;DHT22;7344;50.864;4.362;2022-09-09T07:43:38;17.40;90.20
14517;DHT22;7344;50.864;4.362;2022-09-09T07:46:05;17.20;99.90
14517;DHT22;7344;50.864;4.362;2022-09-09T07:48:31;17.10;99.90
14517;DHT22;7344;50.864;4.362;2022-09-09T07:51:14;17.10;99.90
14517;DHT22;7344;50.864;4.362;2022-09-09T07:53:44;17.20;99.90
14517;DHT22;7344;50.864;4.362;2022-09-09T07:56:12;17.30;99.90
14517;DHT22;7344;50.864;4.362;2022-09-09T07:58:39;17.60;99.90
14517;DHT22;7344;50.864;4.362;2022-09-09T08:01:23;17.80;98.20
14517;DHT22;7344;50.864;4.362;2022-09-09T08:03:58;18.40;88.80
14517;DHT22;7344;50.864;4.362;2022-09-09T08:06:28;18.60;54.30
14517;DHT22;7344;50.864;4.362;2022-09-09T08:08:55;18.90;52.60
14517;DHT22;7344;50.864;4.362;2022-09-09T08:11:22;18.90;47.90
14517;DHT22;7344;50.864;4.362;2022-09-09T08:13:49;19.10;38.60
14517;DHT22;7344;50.864;4.362;2022-09-09T08:16:20;19.70;9.90
14517;DHT22;7344;50.864;4.362;2022-09-09T08:18:50;20.00;1.00
14517;DHT22;7344;50.864;4.362;2022-09-09T08:21:36;19.90;1.00
14517;DHT22;7344;50.864;4.362;2022-09-09T08:24:03;19.80;1.90
14517;DHT22;7344;50.864;4.362;2022-09-09T08:26:36;19.60;2.40
14517;DHT22;7344;50.864;4.362;2022-09-09T08:29:05;19.20;11.10
14517;DHT22;7344;50.864;4.362;2022-09-09T08:31:36;18.80;31.10
14517;DHT22;7344;50.864;4.362;2022-09-09T08:34:03;18.90;37.30
14517;DHT22;7344;50.864;4.362;2022-09-09T08:36:32;18.70;36.40
14517;DHT22;7344;50.864;4.362;2022-09-09T08:39:02;18.60;44.20
14517;DHT22;7344;50.864;4.362;2022-09-09T08:41:37;18.40;50.90
14517;DHT22;7344;50.864;4.362;2022-09-09T08:54:47;17.50;99.90
14517;DHT22;7344;50.864;4.362;2022-09-09T08:57:21;17.40;99.90
14517;DHT22;7344;50.864;4.362;2022-09-09T08:59:52;17.50;99.90
14517;DHT22;7344;50.864;4.362;2022-09-09T09:02:32;17.50;99.90
14517;DHT22;7344;50.864;4.362;2022-09-09T09:12:45;17.60;99.90
14517;DHT22;7344;50.864;4.362;2022-09-09T09:15:22;17.60;99.90
14517;DHT22;7344;50.864;4.362;2022-09-09T09:17:49;17.50;99.90
14517;DHT22;7344;50.864;4.362;2022-09-09T09:20:16;17.50;99.90
14517;DHT22;7344;50.864;4.362;2022-09-09T09:22:48;17.40;99.90
14517;DHT22;7344;50.864;4.362;2022-09-09T09:25:19;17.30;99.90
14517;DHT22;7344;50.864;4.362;2022-09-09T09:30:47;17.30;99.90
14517;DHT22;7344;50.864;4.362;2022-09-09T09:35:49;17.40;99.90
14517;DHT22;7344;50.864;4.362;2022-09-09T09:38:21;17.40;99.90
14517;DHT22;7344;50.864;4.362;2022-09-09T09:40:51;17.40;99.90
14517;DHT22;7344;50.864;4.362;2022-09-09T09:43:24;17.40;99.90
14517;DHT22;7344;50.864;4.362;2022-09-09T09:45:50;17.30;99.90
14517;DHT22;7344;50.864;4.362;2022-09-09T09:48:15;17.40;99.90
14517;DHT22;7344;50.864;4.362;2022-09-09T09:50:53;17.40;99.90
14517;DHT22;7344;50.864;4.362;2022-09-09T09:53:27;17.40;99.90
14517;DHT22;7344;50.864;4.362;2022-09-09T09:55:57;17.40;99.90
14517;DHT22;7344;50.864;4.362;2022-09-09T09:58:25;17.40;99.90
14517;DHT22;7344;50.864;4.362;2022-09-09T10:00:53;17.50;99.90
14517;DHT22;7344;50.864;4.362;2022-09-09T10:03:26;17.50;99.90
14517;DHT22;7344;50.864;4.362;2022-09-09T10:05:53;17.60;99.90
14517;DHT22;7344;50.864;4.362;2022-09-09T10:08:20;17.60;99.90
14517;DHT22;7344;50.864;4.362;2022-09-09T10:13:32;17.70;99.90
14517;DHT22;7344;50.864;4.362;2022-09-09T10:19:33;17.60;99.90
14517;DHT22;7344;50.864;4.362;2022-09-09T10:33:50;18.10;99.90
14517;DHT22;7344;50.864;4.362;2022-09-09T10:38:52;19.30;62.60
14517;DHT22;7344;50.864;4.362;2022-09-09T10:44:22;20.30;13.70
14517;DHT22;7344;50.864;4.362;2022-09-09T10:52:40;20.90;1.00
14517;DHT22;7344;50.864;4.362;2022-09-09T10:55:16;20.60;1.00
14517;DHT22;7344;50.864;4.362;2022-09-09T10:57:44;20.60;2.70
14517;DHT22;7344;50.864;4.362;2022-09-09T11:00:23;20.90;1.80
14517;DHT22;7344;50.864;4.362;2022-09-09T11:02:59;21.10;1.00
14517;DHT22;7344;50.864;4.362;2022-09-09T11:05:34;20.80;1.00
14517;DHT22;7344;50.864;4.362;2022-09-09T11:08:14;20.50;1.00
14517;DHT22;7344;50.864;4.362;2022-09-09T11:11:04;20.40;1.00
14517;DHT22;7344;50.864;4.362;2022-09-09T11:21:52;20.20;4.20
14517;DHT22;7344;50.864;4.362;2022-09-09T11:26:57;20.10;1.00
14517;DHT22;7344;50.864;4.362;2022-09-09T11:32:34;19.90;10.00
14517;DHT22;7344;50.864;4.362;2022-09-09T11:40:43;19.70;17.40
14517;DHT22;7344;50.864;4.362;2022-09-09T11:43:12;19.70;18.10
14517;DHT22;7344;50.864;4.362;2022-09-09T11:45:41;19.40;30.70
14517;DHT22;7344;50.864;4.362;2022-09-09T11:48:43;19.30;36.10
14517;DHT22;7344;50.864;4.362;2022-09-09T11:53:59;19.50;30.30
14517;DHT22;7344;50.864;4.362;2022-09-09T11:56:32;19.60;28.80
14517;DHT22;7344;50.864;4.362;2022-09-09T11:59:01;19.60;29.00
14517;DHT22;7344;50.864;4.362;2022-09-09T12:06:53;19.50;27.00
14517;DHT22;7344;50.864;4.362;2022-09-09T12:14:54;19.50;33.00
14517;DHT22;7344;50.864;4.362;2022-09-09T12:17:25;19.30;37.60
14517;DHT22;7344;50.864;4.362;2022-09-09T12:20:21;19.40;39.50
14517;DHT22;7344;50.864;4.362;2022-09-09T12:26:07;19.30;35.00
14517;DHT22;7344;50.864;4.362;2022-09-09T12:33:54;19.60;38.80
14517;DHT22;7344;50.864;4.362;2022-09-09T12:36:23;19.90;23.80
14517;DHT22;7344;50.864;4.362;2022-09-09T12:38:50;20.00;19.50
14517;DHT22;7344;50.864;4.362;2022-09-09T12:41:25;20.30;16.40
14517;DHT22;7344;50.864;4.362;2022-09-09T12:44:02;20.10;12.20
14517;DHT22;7344;50.864;4.362;2022-09-09T12:49:01;20.50;4.00
14517;DHT22;7344;50.864;4.362;2022-09-09T12:51:30;20.70;1.00
14517;DHT22;7344;50.864;4.362;2022-09-09T12:53:57;20.90;1.00
14517;DHT22;7344;50.864;4.362;2022-09-09T12:56:29;20.60;1.00
14517;DHT22;7344;50.864;4.362;2022-09-09T12:58:57;20.50;1.00
14517;DHT22;7344;50.864;4.362;2022-09-09T13:01:26;20.60;1.00
14517;DHT22;7344;50.864;4.362;2022-09-09T13:03:53;20.70;1.00
14517;DHT22;7344;50.864;4.362;2022-09-09T13:06:24;20.50;1.00
14517;DHT22;7344;50.864;4.362;2022-09-09T13:08:51;20.60;1.00
14517;DHT22;7344;50.864;4.362;2022-09-09T13:11:21;20.70;1.00
14517;DHT22;7344;50.864;4.362;2022-09-09T13:13:56;20.60;1.00
14517;DHT22;7344;50.864;4.362;2022-09-09T13:18:48;20.80;1.00
14517;DHT22;7344;50.864;4.362;2022-09-09T13:21:14;20.70;1.00
14517;DHT22;7344;50.864;4.362;2022-09-09T13:23:40;21.00;1.00
14517;DHT22;7344;50.864;4.362;2022-09-09T13:26:22;21.20;1.00
14517;DHT22;7344;50.864;4.362;2022-09-09T13:28:48;21.00;1.00
14517;DHT22;7344;50.864;4.362;2022-09-09T13:31:27;21.10;1.00
14517;DHT22;7344;50.864;4.362;2022-09-09T13:33:53;20.90;1.00
14517;DHT22;7344;50.864;4.362;2022-09-09T13:36:29;21.00;1.00
14517;DHT22;7344;50.864;4.362;2022-09-09T13:38:58;21.30;1.00
14517;DHT22;7344;50.864;4.362;2022-09-09T13:41:44;21.20;1.00
14517;DHT22;7344;50.864;4.362;2022-09-09T13:44:25;20.90;1.00
14517;DHT22;7344;50.864;4.362;2022-09-09T13:47:02;20.80;1.00
14517;DHT22;7344;50.864;4.362;2022-09-09T13:49:30;20.60;1.00
14517;DHT22;7344;50.864;4.362;2022-09-09T13:52:10;21.00;1.00
14517;DHT22;7344;50.864;4.362;2022-09-09T13:54:37;21.40;1.00
14517;DHT22;7344;50.864;4.362;2022-09-09T13:57:03;21.30;1.00
14517;DHT22;7344;50.864;4.362;2022-09-09T13:59:30;21.30;1.00
14517;DHT22;7344;50.864;4.362;2022-09-09T14:01:57;21.30;1.00
14517;DHT22;7344;50.864;4.362;2022-09-09T14:04:23;21.30;1.00
14517;DHT22;7344;50.864;4.362;2022-09-09T14:06:49;21.30;1.00
14517;DHT22;7344;50.864;4.362;2022-09-09T14:09:17;21.40;1.00
14517;DHT22;7344;50.864;4.362;2022-09-09T14:11:44;21.30;1.00
14517;DHT22;7344;50.864;4.362;2022-09-09T14:14:11;21.40;1.00
14517;DHT22;7344;50.864;4.362;2022-09-09T14:16:36;21.30;1.00
14517;DHT22;7344;50.864;4.362;2022-09-09T14:19:03;21.40;1.00
14517;DHT22;7344;50.864;4.362;2022-09-09T14:21:29;21.60;1.00
14517;DHT22;7344;50.864;4.362;2022-09-09T14:23:54;21.50;1.00
14517;DHT22;7344;50.864;4.362;2022-09-09T14:26:24;21.40;1.00
14517;DHT22;7344;50.864;4.362;2022-09-09T14:28:49;21.10;1.00
14517;DHT22;7344;50.864;4.362;2022-09-09T14:31:15;21.10;1.00
14517;DHT22;7344;50.864;4.362;2022-09-09T14:33:43;21.00;1.00
14517;DHT22;7344;50.864;4.362;2022-09-09T14:36:09;21.00;1.00
14517;DHT22;7344;50.864;4.362;2022-09-09T14:38:36;21.00;1.00
14517;DHT22;7344;50.864;4.362;2022-09-09T14:41:10;21.20;1.00
14517;DHT22;7344;50.864;4.362;2022-09-09T14:43:40;21.30;1.00
14517;DHT22;7344;50.864;4.362;2022-09-09T14:46:07;21.30;1.00
14517;DHT22;7344;50.864;4.362;2022-09-09T14:48:33;21.30;1.00
14517;DHT22;7344;50.864;4.362;2022-09-09T14:51:08;21.10;1.00
14517;DHT22;7344;50.864;4.362;2022-09-09T14:53:34;21.10;1.00
14517;DHT22;7344;50.864;4.362;2022-09-09T14:56:37;21.20;1.00
14517;DHT22;7344;50.864;4.362;2022-09-09T14:58:57;21.30;1.00
14517;DHT22;7344;50.864;4.362;2022-09-09T15:01:23;21.40;1.00
14517;DHT22;7344;50.864;4.362;2022-09-09T15:04:00;21.60;1.00
14517;DHT22;7344;50.864;4.362;2022-09-09T15:06:28;21.50;1.00
14517;DHT22;7344;50.864;4.362;2022-09-09T15:08:55;21.50;1.00
14517;DHT22;7344;50.864;4.362;2022-09-09T15:11:23;21.60;1.00
14517;DHT22;7344;50.864;4.362;2022-09-09T15:13:51;21.40;1.00
14517;DHT22;7344;50.864;4.362;2022-09-09T15:16:23;21.40;1.00
14517;DHT22;7344;50.864;4.362;2022-09-09T15:18:52;21.50;1.00
14517;DHT22;7344;50.864;4.362;2022-09-09T15:21:21;21.30;1.00
14517;DHT22;7344;50.864;4.362;2022-09-09T15:23:47;21.30;1.00
14517;DHT22;7344;50.864;4.362;2022-09-09T15:26:13;21.30;1.00
14517;DHT22;7344;50.864;4.362;2022-09-09T15:28:43;21.40;1.00
14517;DHT22;7344;50.864;4.362;2022-09-09T15:31:21;21.30;1.00
14517;DHT22;7344;50.864;4.362;2022-09-09T15:33:52;21.20;1.00
14517;DHT22;7344;50.864;4.362;2022-09-09T15:36:25;21.00;1.00
14517;DHT22;7344;50.864;4.362;2022-09-09T15:38:52;20.70;1.00
14517;DHT22;7344;50.864;4.362;2022-09-09T15:41:18;20.60;1.00
14517;DHT22;7344;50.864;4.362;2022-09-09T15:43:46;20.50;1.00
14517;DHT22;7344;50.864;4.362;2022-09-09T15:46:33;20.40;1.00
14517;DHT22;7344;50.864;4.362;2022-09-09T15:51:34;20.50;1.00
14517;DHT22;7344;50.864;4.362;2022-09-09T15:54:00;20.50;1.00
14517;DHT22;7344;50.864;4.362;2022-09-09T15:56:27;20.50;1.00
14517;DHT22;7344;50.864;4.362;2022-09-09T15:58:54;20.50;1.00
14517;DHT22;7344;50.864;4.362;2022-09-09T16:01:20;20.50;1.00
14517;DHT22;7344;50.864;4.362;2022-09-09T16:03:46;20.50;1.00
14517;DHT22;7344;50.864;4.362;2022-09-09T16:06:14;20.60;1.00
14517;DHT22;7344;50.864;4.362;2022-09-09T16:08:44;20.60;1.00
14517;DHT22;7344;50.864;4.362;2022-09-09T16:11:11;20.70;1.00
14517;DHT22;7344;50.864;4.362;2022-09-09T16:13:40;20.70;1.00
14517;DHT22;7344;50.864;4.362;2022-09-09T16:16:06;20.60;1.00
14517;DHT22;7344;50.864;4.362;2022-09-09T16:18:37;20.70;1.00
14517;DHT22;7344;50.864;4.362;2022-09-09T16:21:04;20.50;1.00
14517;DHT22;7344;50.864;4.362;2022-09-09T16:23:33;20.40;1.00
14517;DHT22;7344;50.864;4.362;2022-09-09T16:26:00;20.20;1.00
14517;DHT22;7344;50.864;4.362;2022-09-09T16:28:26;20.20;1.00
14517;DHT22;7344;50.864;4.362;2022-09-09T16:30:52;20.20;12.40
14517;DHT22;7344;50.864;4.362;2022-09-09T16:33:17;20.00;16.00
14517;DHT22;7344;50.864;4.362;2022-09-09T16:35:43;19.90;20.00
14517;DHT22;7344;50.864;4.362;2022-09-09T16:38:09;19.70;24.30
14517;DHT22;7344;50.864;4.362;2022-09-09T16:40:39;19.50;24.60
14517;DHT22;7344;50.864;4.362;2022-09-09T16:43:07;19.30;24.50
14517;DHT22;7344;50.864;4.362;2022-09-09T16:45:33;19.30;34.30
14517;DHT22;7344;50.864;4.362;2022-09-09T16:48:01;19.30;31.50
14517;DHT22;7344;50.864;4.362;2022-09-09T16:50:27;19.30;32.50
14517;DHT22;7344;50.864;4.362;2022-09-09T16:52:53;19.40;33.20
14517;DHT22;7344;50.864;4.362;2022-09-09T16:55:19;19.50;37.60
14517;DHT22;7344;50.864;4.362;2022-09-09T16:57:47;19.70;25.30
14517;DHT22;7344;50.864;4.362;2022-09-09T17:00:16;19.70;26.50
14517;DHT22;7344;50.864;4.362;2022-09-09T17:02:43;19.80;23.30
14517;DHT22;7344;50.864;4.362;2022-09-09T17:05:10;19.80;23.50
14517;DHT22;7344;50.864;4.362;2022-09-09T17:07:36;19.80;27.40
14517;DHT22;7344;50.864;4.362;2022-09-09T17:10:02;19.80;35.50
14517;DHT22;7344;50.864;4.362;2022-09-09T17:12:27;19.90;26.60
14517;DHT22;7344;50.864;4.362;2022-09-09T17:14:53;20.00;25.80
14517;DHT22;7344;50.864;4.362;2022-09-09T17:17:20;20.10;25.30
14517;DHT22;7344;50.864;4.362;2022-09-09T17:19:46;20.00;23.10
14517;DHT22;7344;50.864;4.362;2022-09-09T17:22:12;19.80;33.40
14517;DHT22;7344;50.864;4.362;2022-09-09T17:24:38;19.70;39.90
14517;DHT22;7344;50.864;4.362;2022-09-09T17:27:04;19.70;49.20
14517;DHT22;7344;50.864;4.362;2022-09-09T17:29:30;19.50;44.80
14517;DHT22;7344;50.864;4.362;2022-09-09T17:31:55;19.40;42.80
14517;DHT22;7344;50.864;4.362;2022-09-09T17:34:21;19.20;43.70
14517;DHT22;7344;50.864;4.362;2022-09-09T17:36:48;19.10;38.20
14517;DHT22;7344;50.864;4.362;2022-09-09T17:39:13;19.00;43.10
14517;DHT22;7344;50.864;4.362;2022-09-09T17:41:39;18.90;39.50
14517;DHT22;7344;50.864;4.362;2022-09-09T17:44:06;18.70;51.00
14517;DHT22;7344;50.864;4.362;2022-09-09T17:46:42;18.60;41.50
14517;DHT22;7344;50.864;4.362;2022-09-09T17:49:13;18.50;29.90
14517;DHT22;7344;50.864;4.362;2022-09-09T17:51:41;18.50;33.70
14517;DHT22;7344;50.864;4.362;2022-09-09T17:54:09;18.40;29.70
14517;DHT22;7344;50.864;4.362;2022-09-09T17:56:37;18.40;31.10
14517;DHT22;7344;50.864;4.362;2022-09-09T17:59:05;18.30;30.20
14517;DHT22;7344;50.864;4.362;2022-09-09T18:01:34;18.20;35.20
14517;DHT22;7344;50.864;4.362;2022-09-09T18:04:03;18.10;35.50
14517;DHT22;7344;50.864;4.362;2022-09-09T18:06:36;18.10;31.60
14517;DHT22;7344;50.864;4.362;2022-09-09T18:09:08;18.10;31.40
14517;DHT22;7344;50.864;4.362;2022-09-09T18:11:38;18.00;33.20
14517;DHT22;7344;50.864;4.362;2022-09-09T18:14:07;18.00;33.00
14517;DHT22;7344;50.864;4.362;2022-09-09T18:16:35;17.90;34.80
14517;DHT22;7344;50.864;4.362;2022-09-09T18:19:03;17.90;37.80
14517;DHT22;7344;50.864;4.362;2022-09-09T18:21:31;17.90;34.30
14517;DHT22;7344;50.864;4.362;2022-09-09T18:24:02;17.90;37.60
14517;DHT22;7344;50.864;4.362;2022-09-09T18:26:28;17.90;33.70
14517;DHT22;7344;50.864;4.362;2022-09-09T18:28:56;17.90;35.50
14517;DHT22;7344;50.864;4.362;2022-09-09T18:31:24;17.90;35.60
14517;DHT22;7344;50.864;4.362;2022-09-09T18:33:51;17.90;36.50